sensor_id;sensor_type;location;lat;lon;timestamp;pressure;altitude;pressure_sealevel;temperature;humidity
65376;BME280;51976;47.332;9.404;2023-03-16T00:00:48;92894.97;;;1.65;62.37
65376;BME280;51976;47.332;9.404;2023-03-16T00:03:14;92879.91;;;1.48;62.38
65376;BME280;51976;47.332;9.404;2023-03-16T00:05:48;92887.66;;;1.49;62.69
65376;BME280;51976;47.332;9.404;2023-03-16T00:08:15;92892.81;;;1.14;63.59
65376;BME280;51976;47.332;9.404;2023-03-16T00:10:41;92887.81;;;1.06;63.88
65376;BME280;51976;47.332;9.404;2023-03-16T00:13:15;92890.44;;;1.24;63.72
65376;BME280;51976;47.332;9.404;2023-03-16T00:15:41;92885.66;;;1.45;63.28
65376;BME280;51976;47.332;9.404;2023-03-16T00:18:06;92877.75;;;1.56;62.70
65376;BME280;51976;47.332;9.404;2023-03-16T00:20:32;92872.28;;;1.51;62.56
65376;BME280;51976;47.332;9.404;2023-03-16T00:22:58;92880.25;;;1.51;62.13
65376;BME280;51976;47.332;9.404;2023-03-16T00:25:23;92854.44;;;1.28;62.14
65376;BME280;51976;47.332;9.404;2023-03-16T00:27:48;92879.06;;;0.87;63.30
65376;BME280;51976;47.332;9.404;2023-03-16T00:30:14;92878.59;;;0.90;63.59
65376;BME280;51976;47.332;9.404;2023-03-16T00:32:40;92875.97;;;0.90;63.18
65376;BME280;51976;47.332;9.404;2023-03-16T00:35:06;92849.59;;;0.59;63.56
65376;BME280;51976;47.332;9.404;2023-03-16T00:37:31;92855.53;;;0.91;63.00
65376;BME280;51976;47.332;9.404;2023-03-16T00:39:57;92866.00;;;1.04;62.84
65376;BME280;51976;47.332;9.404;2023-03-16T00:42:25;92858.88;;;1.16;62.37
65376;BME280;51976;47.332;9.404;2023-03-16T00:44:58;92862.94;;;1.19;62.28
65376;BME280;51976;47.332;9.404;2023-03-16T00:47:25;92860.28;;;1.19;62.22
65376;BME280;51976;47.332;9.404;2023-03-16T00:49:52;92858.41;;;1.08;62.68
65376;BME280;51976;47.332;9.404;2023-03-16T00:52:18;92861.53;;;1.16;62.60
65376;BME280;51976;47.332;9.404;2023-03-16T00:54:45;92835.31;;;1.08;62.47
65376;BME280;51976;47.332;9.404;2023-03-16T00:57:14;92858.19;;;1.09;62.61
65376;BME280;51976;47.332;9.404;2023-03-16T00:59:43;92836.97;;;0.91;62.97
65376;BME280;51976;47.332;9.404;2023-03-16T01:02:09;92846.97;;;1.07;62.85
65376;BME280;51976;47.332;9.404;2023-03-16T01:04:35;92827.09;;;1.10;62.55
65376;BME280;51976;47.332;9.404;2023-03-16T01:07:02;92834.03;;;1.11;62.82
65376;BME280;51976;47.332;9.404;2023-03-16T01:09:28;92835.56;;;1.18;62.54
65376;BME280;51976;47.332;9.404;2023-03-16T01:11:53;92827.84;;;1.17;62.14
65376;BME280;51976;47.332;9.404;2023-03-16T01:14:20;92839.72;;;1.14;62.52
65376;BME280;51976;47.332;9.404;2023-03-16T01:16:46;92832.59;;;0.96;62.96
65376;BME280;51976;47.332;9.404;2023-03-16T01:19:12;92790.13;;;0.66;63.11
65376;BME280;51976;47.332;9.404;2023-03-16T01:21:39;92816.91;;;0.95;63.01
65376;BME280;51976;47.332;9.404;2023-03-16T01:24:05;92832.88;;;1.07;62.63
65376;BME280;51976;47.332;9.404;2023-03-16T01:26:30;92815.50;;;0.92;62.95
65376;BME280;51976;47.332;9.404;2023-03-16T01:28:56;92815.06;;;0.95;62.86
65376;BME280;51976;47.332;9.404;2023-03-16T01:31:21;92803.78;;;1.00;62.56
65376;BME280;51976;47.332;9.404;2023-03-16T01:33:47;92814.38;;;1.00;62.92
65376;BME280;51976;47.332;9.404;2023-03-16T01:36:15;92826.34;;;0.91;63.18
65376;BME280;51976;47.332;9.404;2023-03-16T01:38:42;92819.97;;;0.80;63.33
65376;BME280;51976;47.332;9.404;2023-03-16T01:41:08;92798.16;;;0.78;63.21
65376;BME280;51976;47.332;9.404;2023-03-16T01:43:35;92817.88;;;0.82;63.34
65376;BME280;51976;47.332;9.404;2023-03-16T01:46:17;92820.84;;;0.74;63.52
65376;BME280;51976;47.332;9.404;2023-03-16T01:48:50;92819.84;;;0.87;63.31
65376;BME280;51976;47.332;9.404;2023-03-16T01:51:24;92796.47;;;0.65;63.45
65376;BME280;51976;47.332;9.404;2023-03-16T01:54:07;92822.97;;;0.65;63.56
65376;BME280;51976;47.332;9.404;2023-03-16T01:56:42;92818.97;;;0.26;64.61
65376;BME280;51976;47.332;9.404;2023-03-16T01:59:13;92805.69;;;0.45;64.28
65376;BME280;51976;47.332;9.404;2023-03-16T02:01:40;92807.88;;;0.66;63.75
65376;BME280;51976;47.332;9.404;2023-03-16T02:04:15;92808.31;;;0.81;63.29
65376;BME280;51976;47.332;9.404;2023-03-16T02:06:42;92811.41;;;0.60;63.56
65376;BME280;51976;47.332;9.404;2023-03-16T02:09:09;92807.72;;;0.61;63.58
65376;BME280;51976;47.332;9.404;2023-03-16T02:11:35;92818.06;;;0.69;63.19
65376;BME280;51976;47.332;9.404;2023-03-16T02:14:05;92811.31;;;0.85;62.96
65376;BME280;51976;47.332;9.404;2023-03-16T02:16:32;92816.63;;;0.85;62.72
65376;BME280;51976;47.332;9.404;2023-03-16T02:18:57;92807.72;;;0.79;62.71
65376;BME280;51976;47.332;9.404;2023-03-16T02:21:47;92814.06;;;0.60;63.41
65376;BME280;51976;47.332;9.404;2023-03-16T02:24:19;92785.66;;;0.49;63.30
65376;BME280;51976;47.332;9.404;2023-03-16T02:27:03;92804.78;;;0.69;63.01
65376;BME280;51976;47.332;9.404;2023-03-16T02:29:58;92799.84;;;0.73;62.84
65376;BME280;51976;47.332;9.404;2023-03-16T02:32:27;92809.94;;;0.64;62.95
65376;BME280;51976;47.332;9.404;2023-03-16T02:34:54;92800.66;;;0.55;63.19
65376;BME280;51976;47.332;9.404;2023-03-16T02:37:20;92798.97;;;0.60;63.14
65376;BME280;51976;47.332;9.404;2023-03-16T02:39:46;92808.13;;;0.46;63.29
65376;BME280;51976;47.332;9.404;2023-03-16T02:42:15;92806.19;;;0.35;63.32
65376;BME280;51976;47.332;9.404;2023-03-16T02:44:42;92795.81;;;0.33;63.63
65376;BME280;51976;47.332;9.404;2023-03-16T02:47:22;92811.13;;;0.31;63.39
65376;BME280;51976;47.332;9.404;2023-03-16T02:49:49;92782.50;;;0.22;63.48
65376;BME280;51976;47.332;9.404;2023-03-16T02:52:14;92811.16;;;0.50;63.10
65376;BME280;51976;47.332;9.404;2023-03-16T02:54:40;92812.16;;;0.12;64.12
65376;BME280;51976;47.332;9.404;2023-03-16T02:57:05;92782.72;;;0.20;63.49
65376;BME280;51976;47.332;9.404;2023-03-16T02:59:31;92813.66;;;0.45;63.21
65376;BME280;51976;47.332;9.404;2023-03-16T03:01:56;92812.78;;;0.51;62.97
65376;BME280;51976;47.332;9.404;2023-03-16T03:04:21;92785.94;;;0.41;62.84
65376;BME280;51976;47.332;9.404;2023-03-16T03:06:49;92807.00;;;0.36;63.29
65376;BME280;51976;47.332;9.404;2023-03-16T03:09:14;92806.22;;;0.53;62.87
65376;BME280;51976;47.332;9.404;2023-03-16T03:11:40;92778.28;;;0.32;62.74
65376;BME280;51976;47.332;9.404;2023-03-16T03:14:05;92782.84;;;0.44;62.87
65376;BME280;51976;47.332;9.404;2023-03-16T03:16:31;92801.84;;;0.41;63.04
65376;BME280;51976;47.332;9.404;2023-03-16T03:18:57;92811.22;;;0.43;62.91
65376;BME280;51976;47.332;9.404;2023-03-16T03:21:23;92803.06;;;0.26;62.97
65376;BME280;51976;47.332;9.404;2023-03-16T03:23:49;92799.06;;;0.36;63.02
65376;BME280;51976;47.332;9.404;2023-03-16T03:26:15;92790.91;;;0.19;62.73
65376;BME280;51976;47.332;9.404;2023-03-16T03:28:41;92798.97;;;0.06;63.41
65376;BME280;51976;47.332;9.404;2023-03-16T03:31:13;92783.81;;;-0.06;63.81
65376;BME280;51976;47.332;9.404;2023-03-16T03:33:38;92790.38;;;0.10;63.73
65376;BME280;51976;47.332;9.404;2023-03-16T03:36:04;92792.94;;;0.17;63.40
65376;BME280;51976;47.332;9.404;2023-03-16T03:38:30;92786.78;;;0.23;63.21
65376;BME280;51976;47.332;9.404;2023-03-16T03:40:55;92774.41;;;0.17;63.09
65376;BME280;51976;47.332;9.404;2023-03-16T03:43:24;92791.63;;;0.26;62.85
65376;BME280;51976;47.332;9.404;2023-03-16T03:45:54;92785.53;;;0.25;62.88
65376;BME280;51976;47.332;9.404;2023-03-16T03:48:20;92762.78;;;-0.01;62.92
65376;BME280;51976;47.332;9.404;2023-03-16T03:50:46;92780.63;;;0.04;63.16
65376;BME280;51976;47.332;9.404;2023-03-16T03:53:11;92784.63;;;-0.05;63.68
65376;BME280;51976;47.332;9.404;2023-03-16T03:55:37;92783.94;;;-0.19;63.83
65376;BME280;51976;47.332;9.404;2023-03-16T03:58:02;92773.38;;;-0.25;64.17
65376;BME280;51976;47.332;9.404;2023-03-16T04:00:27;92763.59;;;-0.25;64.32
65376;BME280;51976;47.332;9.404;2023-03-16T04:02:53;92766.03;;;-0.23;64.36
65376;BME280;51976;47.332;9.404;2023-03-16T04:05:18;92763.72;;;0.05;63.47
65376;BME280;51976;47.332;9.404;2023-03-16T04:07:43;92770.13;;;0.16;63.34
65376;BME280;51976;47.332;9.404;2023-03-16T04:10:09;92761.44;;;0.09;63.44
65376;BME280;51976;47.332;9.404;2023-03-16T04:12:35;92754.94;;;-0.14;63.78
65376;BME280;51976;47.332;9.404;2023-03-16T04:15:02;92762.53;;;0.01;63.51
65376;BME280;51976;47.332;9.404;2023-03-16T04:17:28;92719.31;;;-0.36;63.40
65376;BME280;51976;47.332;9.404;2023-03-16T04:19:53;92755.63;;;0.00;62.82
65376;BME280;51976;47.332;9.404;2023-03-16T04:22:19;92760.19;;;0.11;62.61
65376;BME280;51976;47.332;9.404;2023-03-16T04:24:47;92761.00;;;0.12;62.74
65376;BME280;51976;47.332;9.404;2023-03-16T04:27:12;92755.31;;;0.08;62.75
65376;BME280;51976;47.332;9.404;2023-03-16T04:29:38;92737.97;;;-0.06;62.88
65376;BME280;51976;47.332;9.404;2023-03-16T04:32:05;92752.00;;;-0.06;63.09
65376;BME280;51976;47.332;9.404;2023-03-16T04:34:30;92751.06;;;-0.11;63.42
65376;BME280;51976;47.332;9.404;2023-03-16T04:36:56;92743.59;;;-0.21;63.44
65376;BME280;51976;47.332;9.404;2023-03-16T04:39:21;92735.28;;;-0.24;63.37
65376;BME280;51976;47.332;9.404;2023-03-16T04:41:47;92739.41;;;-0.10;63.43
65376;BME280;51976;47.332;9.404;2023-03-16T04:44:13;92728.31;;;-0.01;63.01
65376;BME280;51976;47.332;9.404;2023-03-16T04:46:39;92714.91;;;-0.06;62.81
65376;BME280;51976;47.332;9.404;2023-03-16T04:49:04;92737.97;;;-0.06;63.07
65376;BME280;51976;47.332;9.404;2023-03-16T04:51:34;92736.94;;;-0.05;63.32
65376;BME280;51976;47.332;9.404;2023-03-16T04:53:59;92721.44;;;-0.26;63.64
65376;BME280;51976;47.332;9.404;2023-03-16T04:56:25;92725.66;;;-0.19;63.64
65376;BME280;51976;47.332;9.404;2023-03-16T04:58:50;92728.34;;;-0.25;63.75
65376;BME280;51976;47.332;9.404;2023-03-16T05:01:16;92731.91;;;-0.31;63.92
65376;BME280;51976;47.332;9.404;2023-03-16T05:03:42;92735.88;;;-0.22;63.77
65376;BME280;51976;47.332;9.404;2023-03-16T05:06:09;92736.41;;;-0.14;63.67
65376;BME280;51976;47.332;9.404;2023-03-16T05:08:35;92739.56;;;-0.05;63.27
65376;BME280;51976;47.332;9.404;2023-03-16T05:11:00;92737.66;;;-0.16;63.25
65376;BME280;51976;47.332;9.404;2023-03-16T05:13:26;92735.66;;;-0.21;63.67
65376;BME280;51976;47.332;9.404;2023-03-16T05:15:51;92722.56;;;-0.16;63.27
65376;BME280;51976;47.332;9.404;2023-03-16T05:18:21;92733.22;;;-0.22;63.11
65376;BME280;51976;47.332;9.404;2023-03-16T05:20:53;92733.09;;;-0.27;63.29
65376;BME280;51976;47.332;9.404;2023-03-16T05:23:20;92712.69;;;-0.27;63.19
65376;BME280;51976;47.332;9.404;2023-03-16T05:25:47;92721.09;;;-0.30;63.52
65376;BME280;51976;47.332;9.404;2023-03-16T05:28:13;92728.06;;;-0.17;62.89
65376;BME280;51976;47.332;9.404;2023-03-16T05:30:39;92723.00;;;-0.19;63.25
65376;BME280;51976;47.332;9.404;2023-03-16T05:33:06;92726.03;;;-0.15;62.89
65376;BME280;51976;47.332;9.404;2023-03-16T05:35:32;92715.84;;;-0.18;63.09
65376;BME280;51976;47.332;9.404;2023-03-16T05:37:57;92706.66;;;-0.34;62.94
65376;BME280;51976;47.332;9.404;2023-03-16T05:40:23;92726.47;;;-0.18;63.25
65376;BME280;51976;47.332;9.404;2023-03-16T05:42:54;92722.13;;;-0.13;62.63
65376;BME280;51976;47.332;9.404;2023-03-16T05:45:19;92696.72;;;-0.39;62.63
65376;BME280;51976;47.332;9.404;2023-03-16T05:47:45;92718.28;;;-0.17;62.51
65376;BME280;51976;47.332;9.404;2023-03-16T05:50:12;92718.00;;;-0.09;62.50
65376;BME280;51976;47.332;9.404;2023-03-16T05:52:38;92717.41;;;-0.11;62.35
65376;BME280;51976;47.332;9.404;2023-03-16T05:55:05;92718.94;;;-0.21;62.69
65376;BME280;51976;47.332;9.404;2023-03-16T05:57:31;92713.59;;;-0.33;63.01
65376;BME280;51976;47.332;9.404;2023-03-16T05:59:58;92713.69;;;-0.46;63.58
65376;BME280;51976;47.332;9.404;2023-03-16T06:02:23;92719.56;;;-0.62;63.89
65376;BME280;51976;47.332;9.404;2023-03-16T06:04:49;92722.19;;;-0.38;63.27
65376;BME280;51976;47.332;9.404;2023-03-16T06:07:14;92707.47;;;0.03;71.92
65376;BME280;51976;47.332;9.404;2023-03-16T06:09:40;92705.28;;;2.42;80.44
65376;BME280;51976;47.332;9.404;2023-03-16T06:12:05;92694.97;;;3.69;78.21
65376;BME280;51976;47.332;9.404;2023-03-16T06:14:31;92701.19;;;4.52;73.58
65376;BME280;51976;47.332;9.404;2023-03-16T06:16:56;92697.19;;;4.76;70.66
65376;BME280;51976;47.332;9.404;2023-03-16T06:19:22;92685.84;;;4.64;68.49
65376;BME280;51976;47.332;9.404;2023-03-16T06:21:47;92691.97;;;4.42;68.65
65376;BME280;51976;47.332;9.404;2023-03-16T06:24:12;92694.97;;;4.24;68.16
65376;BME280;51976;47.332;9.404;2023-03-16T06:26:38;92701.72;;;2.24;61.51
65376;BME280;51976;47.332;9.404;2023-03-16T06:29:04;92711.63;;;3.43;70.81
65376;BME280;51976;47.332;9.404;2023-03-16T06:31:30;92698.13;;;4.21;66.71
65376;BME280;51976;47.332;9.404;2023-03-16T06:33:55;92705.88;;;2.72;56.83
65376;BME280;51976;47.332;9.404;2023-03-16T06:36:20;92714.66;;;1.57;58.85
65376;BME280;51976;47.332;9.404;2023-03-16T06:38:46;92701.38;;;0.81;60.76
65376;BME280;51976;47.332;9.404;2023-03-16T06:41:11;92722.63;;;0.92;60.90
65376;BME280;51976;47.332;9.404;2023-03-16T06:43:37;92721.44;;;0.88;60.94
65376;BME280;51976;47.332;9.404;2023-03-16T06:46:02;92722.25;;;0.89;60.47
65376;BME280;51976;47.332;9.404;2023-03-16T06:48:28;92713.25;;;0.78;60.91
65376;BME280;51976;47.332;9.404;2023-03-16T06:50:54;92713.72;;;0.87;60.68
65376;BME280;51976;47.332;9.404;2023-03-16T06:53:19;92729.09;;;0.96;60.60
65376;BME280;51976;47.332;9.404;2023-03-16T06:55:46;92716.63;;;0.97;60.26
65376;BME280;51976;47.332;9.404;2023-03-16T06:58:11;92730.97;;;1.08;59.96
65376;BME280;51976;47.332;9.404;2023-03-16T07:00:37;92731.66;;;1.15;59.65
65376;BME280;51976;47.332;9.404;2023-03-16T07:03:02;92718.63;;;1.13;59.81
65376;BME280;51976;47.332;9.404;2023-03-16T07:05:28;92725.94;;;1.41;59.12
65376;BME280;51976;47.332;9.404;2023-03-16T07:07:53;92728.25;;;1.49;59.05
65376;BME280;51976;47.332;9.404;2023-03-16T07:10:19;92702.84;;;1.53;58.43
65376;BME280;51976;47.332;9.404;2023-03-16T07:12:45;92711.63;;;1.77;58.10
65376;BME280;51976;47.332;9.404;2023-03-16T07:15:11;92714.97;;;1.96;57.16
65376;BME280;51976;47.332;9.404;2023-03-16T07:17:37;92714.91;;;2.19;56.31
65376;BME280;51976;47.332;9.404;2023-03-16T07:20:04;92712.94;;;2.26;54.29
65376;BME280;51976;47.332;9.404;2023-03-16T07:22:31;92716.41;;;2.27;53.60
65376;BME280;51976;47.332;9.404;2023-03-16T07:24:57;92713.44;;;2.52;54.05
65376;BME280;51976;47.332;9.404;2023-03-16T07:27:23;92720.00;;;2.32;55.15
65376;BME280;51976;47.332;9.404;2023-03-16T07:29:49;92720.84;;;1.98;57.13
65376;BME280;51976;47.332;9.404;2023-03-16T07:32:16;92726.72;;;2.63;57.13
65376;BME280;51976;47.332;9.404;2023-03-16T07:34:42;92714.50;;;3.08;55.06
65376;BME280;51976;47.332;9.404;2023-03-16T07:37:08;92697.41;;;3.37;53.85
65376;BME280;51976;47.332;9.404;2023-03-16T07:39:35;92721.16;;;3.38;54.91
65376;BME280;51976;47.332;9.404;2023-03-16T07:42:00;92719.38;;;3.78;53.31
65376;BME280;51976;47.332;9.404;2023-03-16T07:44:26;92712.09;;;3.90;53.20
65376;BME280;51976;47.332;9.404;2023-03-16T07:46:52;92722.91;;;3.83;52.81
65376;BME280;51976;47.332;9.404;2023-03-16T07:49:20;92719.63;;;4.15;52.45
65376;BME280;51976;47.332;9.404;2023-03-16T07:51:46;92721.22;;;4.32;51.58
65376;BME280;51976;47.332;9.404;2023-03-16T07:54:11;92728.22;;;4.38;50.73
65376;BME280;51976;47.332;9.404;2023-03-16T07:56:38;92680.06;;;4.28;50.20
65376;BME280;51976;47.332;9.404;2023-03-16T07:59:03;92727.84;;;4.08;49.59
65376;BME280;51976;47.332;9.404;2023-03-16T08:01:28;92721.22;;;4.32;48.57
65376;BME280;51976;47.332;9.404;2023-03-16T08:03:54;92725.09;;;4.63;48.03
65376;BME280;51976;47.332;9.404;2023-03-16T08:06:19;92726.19;;;4.89;47.82
65376;BME280;51976;47.332;9.404;2023-03-16T08:08:46;92720.88;;;5.48;47.06
65376;BME280;51976;47.332;9.404;2023-03-16T08:11:12;92735.16;;;5.05;45.68
65376;BME280;51976;47.332;9.404;2023-03-16T08:13:37;92727.81;;;5.44;46.27
65376;BME280;51976;47.332;9.404;2023-03-16T08:16:03;92720.13;;;5.85;45.45
65376;BME280;51976;47.332;9.404;2023-03-16T08:18:30;92722.09;;;5.94;43.38
65376;BME280;51976;47.332;9.404;2023-03-16T08:20:56;92730.00;;;6.16;43.47
65376;BME280;51976;47.332;9.404;2023-03-16T08:23:23;92718.06;;;6.29;42.86
65376;BME280;51976;47.332;9.404;2023-03-16T08:25:53;92724.78;;;6.36;42.36
65376;BME280;51976;47.332;9.404;2023-03-16T08:28:18;92705.19;;;6.31;42.32
65376;BME280;51976;47.332;9.404;2023-03-16T08:30:47;92716.41;;;6.85;41.83
65376;BME280;51976;47.332;9.404;2023-03-16T08:33:14;92711.06;;;6.80;41.47
65376;BME280;51976;47.332;9.404;2023-03-16T08:35:42;92727.63;;;5.88;41.19
65376;BME280;51976;47.332;9.404;2023-03-16T08:38:09;92726.22;;;5.16;42.47
65376;BME280;51976;47.332;9.404;2023-03-16T08:40:35;92696.75;;;5.75;41.93
65376;BME280;51976;47.332;9.404;2023-03-16T08:43:01;92721.16;;;5.47;42.55
65376;BME280;51976;47.332;9.404;2023-03-16T08:45:28;92720.97;;;5.58;42.97
65376;BME280;51976;47.332;9.404;2023-03-16T08:47:53;92705.41;;;6.19;41.13
65376;BME280;51976;47.332;9.404;2023-03-16T08:50:18;92715.19;;;6.45;41.35
65376;BME280;51976;47.332;9.404;2023-03-16T08:52:45;92709.75;;;6.88;40.98
65376;BME280;51976;47.332;9.404;2023-03-16T08:55:11;92696.13;;;6.99;41.60
65376;BME280;51976;47.332;9.404;2023-03-16T08:57:37;92710.13;;;7.27;41.07
65376;BME280;51976;47.332;9.404;2023-03-16T09:00:06;92714.22;;;7.75;39.31
65376;BME280;51976;47.332;9.404;2023-03-16T09:02:40;92703.75;;;7.63;38.79
65376;BME280;51976;47.332;9.404;2023-03-16T09:05:09;92715.56;;;7.77;38.66
65376;BME280;51976;47.332;9.404;2023-03-16T09:07:36;92697.84;;;8.17;38.46
65376;BME280;51976;47.332;9.404;2023-03-16T09:10:05;92692.19;;;8.39;37.72
65376;BME280;51976;47.332;9.404;2023-03-16T09:12:33;92688.59;;;8.64;36.59
65376;BME280;51976;47.332;9.404;2023-03-16T09:14:59;92698.34;;;8.44;36.63
65376;BME280;51976;47.332;9.404;2023-03-16T09:17:25;92715.09;;;6.88;39.34
65376;BME280;51976;47.332;9.404;2023-03-16T09:19:53;92706.88;;;7.04;39.90
65376;BME280;51976;47.332;9.404;2023-03-16T09:22:20;92702.97;;;6.65;40.71
65376;BME280;51976;47.332;9.404;2023-03-16T09:24:46;92698.75;;;6.79;40.51
65376;BME280;51976;47.332;9.404;2023-03-16T09:27:12;92682.97;;;6.98;40.69
65376;BME280;51976;47.332;9.404;2023-03-16T09:29:39;92704.25;;;7.35;40.97
65376;BME280;51976;47.332;9.404;2023-03-16T09:32:05;92706.44;;;7.78;40.33
65376;BME280;51976;47.332;9.404;2023-03-16T09:34:31;92690.31;;;7.38;40.72
65376;BME280;51976;47.332;9.404;2023-03-16T09:36:56;92676.31;;;7.10;41.11
65376;BME280;51976;47.332;9.404;2023-03-16T09:39:22;92688.84;;;6.90;41.83
65376;BME280;51976;47.332;9.404;2023-03-16T09:41:52;92686.50;;;7.03;40.75
65376;BME280;51976;47.332;9.404;2023-03-16T09:44:38;92688.56;;;6.81;39.97
65376;BME280;51976;47.332;9.404;2023-03-16T09:47:10;92681.09;;;6.98;40.39
65376;BME280;51976;47.332;9.404;2023-03-16T09:49:41;92672.88;;;7.81;39.96
65376;BME280;51976;47.332;9.404;2023-03-16T09:52:33;92685.22;;;7.77;38.44
65376;BME280;51976;47.332;9.404;2023-03-16T09:55:07;92659.75;;;7.74;39.67
65376;BME280;51976;47.332;9.404;2023-03-16T09:57:40;92672.03;;;7.09;42.90
65376;BME280;51976;47.332;9.404;2023-03-16T10:00:17;92669.41;;;7.91;42.19
65376;BME280;51976;47.332;9.404;2023-03-16T10:03:01;92672.06;;;7.96;42.47
65376;BME280;51976;47.332;9.404;2023-03-16T10:05:30;92669.41;;;7.70;43.00
65376;BME280;51976;47.332;9.404;2023-03-16T10:08:06;92671.81;;;7.62;43.57
65376;BME280;51976;47.332;9.404;2023-03-16T10:10:52;92651.72;;;7.59;43.80
65376;BME280;51976;47.332;9.404;2023-03-16T10:13:29;92666.16;;;7.48;43.33
65376;BME280;51976;47.332;9.404;2023-03-16T10:15:58;92666.19;;;7.84;43.29
65376;BME280;51976;47.332;9.404;2023-03-16T10:18:31;92662.97;;;7.92;42.99
65376;BME280;51976;47.332;9.404;2023-03-16T10:21:00;92638.78;;;7.97;42.63
65376;BME280;51976;47.332;9.404;2023-03-16T10:23:33;92656.50;;;7.42;44.05
65376;BME280;51976;47.332;9.404;2023-03-16T10:26:00;92649.53;;;7.66;43.18
65376;BME280;51976;47.332;9.404;2023-03-16T10:28:34;92658.59;;;8.31;42.79
65376;BME280;51976;47.332;9.404;2023-03-16T10:31:01;92649.41;;;8.53;42.69
65376;BME280;51976;47.332;9.404;2023-03-16T10:33:31;92646.72;;;8.58;42.33
65376;BME280;51976;47.332;9.404;2023-03-16T10:36:11;92634.38;;;8.52;42.78
65376;BME280;51976;47.332;9.404;2023-03-16T10:38:42;92635.50;;;8.25;43.03
65376;BME280;51976;47.332;9.404;2023-03-16T10:41:28;92633.44;;;7.92;43.51
65376;BME280;51976;47.332;9.404;2023-03-16T10:44:00;92636.88;;;8.07;43.57
65376;BME280;51976;47.332;9.404;2023-03-16T10:46:37;92633.91;;;8.19;43.53
65376;BME280;51976;47.332;9.404;2023-03-16T10:49:04;92628.78;;;8.23;43.39
65376;BME280;51976;47.332;9.404;2023-03-16T10:51:34;92606.50;;;8.27;42.87
65376;BME280;51976;47.332;9.404;2023-03-16T10:54:13;92641.41;;;8.37;42.09
65376;BME280;51976;47.332;9.404;2023-03-16T10:56:39;92628.50;;;8.44;41.89
65376;BME280;51976;47.332;9.404;2023-03-16T10:59:27;92630.88;;;9.05;40.96
65376;BME280;51976;47.332;9.404;2023-03-16T11:01:54;92630.53;;;8.73;41.53
65376;BME280;51976;47.332;9.404;2023-03-16T11:04:20;92634.47;;;8.96;41.67
65376;BME280;51976;47.332;9.404;2023-03-16T11:06:52;92629.97;;;8.76;41.10
65376;BME280;51976;47.332;9.404;2023-03-16T11:09:29;92626.13;;;8.97;41.30
65376;BME280;51976;47.332;9.404;2023-03-16T11:11:57;92620.59;;;9.23;40.56
65376;BME280;51976;47.332;9.404;2023-03-16T11:14:26;92627.13;;;9.06;41.48
65376;BME280;51976;47.332;9.404;2023-03-16T11:17:11;92617.53;;;8.95;41.30
65376;BME280;51976;47.332;9.404;2023-03-16T11:19:47;92627.59;;;9.19;41.42
65376;BME280;51976;47.332;9.404;2023-03-16T11:22:15;92616.16;;;10.05;40.44
65376;BME280;51976;47.332;9.404;2023-03-16T11:24:49;92594.56;;;10.10;39.23
65376;BME280;51976;47.332;9.404;2023-03-16T11:27:34;92600.09;;;10.24;40.07
65376;BME280;51976;47.332;9.404;2023-03-16T11:30:11;92602.66;;;10.58;39.41
65376;BME280;51976;47.332;9.404;2023-03-16T11:32:39;92612.75;;;10.71;39.18
65376;BME280;51976;47.332;9.404;2023-03-16T11:35:14;92604.13;;;10.93;39.00
65376;BME280;51976;47.332;9.404;2023-03-16T11:37:53;92613.38;;;11.05;39.29
65376;BME280;51976;47.332;9.404;2023-03-16T11:40:49;92601.84;;;11.00;38.73
65376;BME280;51976;47.332;9.404;2023-03-16T11:43:53;92617.22;;;10.99;39.19
65376;BME280;51976;47.332;9.404;2023-03-16T11:46:25;92616.97;;;11.19;38.86
65376;BME280;51976;47.332;9.404;2023-03-16T11:52:04;92611.09;;;9.64;44.60
65376;BME280;51976;47.332;9.404;2023-03-16T11:54:42;92614.47;;;9.51;44.54
65376;BME280;51976;47.332;9.404;2023-03-16T11:57:32;92618.72;;;9.57;43.39
65376;BME280;51976;47.332;9.404;2023-03-16T12:00:33;92611.59;;;9.71;44.48
65376;BME280;51976;47.332;9.404;2023-03-16T12:03:27;92615.59;;;9.40;44.34
65376;BME280;51976;47.332;9.404;2023-03-16T12:06:18;92598.66;;;10.55;43.23
65376;BME280;51976;47.332;9.404;2023-03-16T12:09:01;92603.81;;;10.28;42.05
65376;BME280;51976;47.332;9.404;2023-03-16T12:11:34;92594.13;;;10.50;41.82
65376;BME280;51976;47.332;9.404;2023-03-16T12:14:19;92584.97;;;10.28;42.19
65376;BME280;51976;47.332;9.404;2023-03-16T12:17:08;92573.53;;;10.12;42.26
65376;BME280;51976;47.332;9.404;2023-03-16T12:19:48;92570.94;;;10.02;42.42
65376;BME280;51976;47.332;9.404;2023-03-16T12:22:25;92576.69;;;9.90;42.31
65376;BME280;51976;47.332;9.404;2023-03-16T12:24:52;92565.38;;;10.17;42.40
65376;BME280;51976;47.332;9.404;2023-03-16T12:27:22;92565.88;;;9.95;42.58
65376;BME280;51976;47.332;9.404;2023-03-16T12:30:04;92551.03;;;10.27;42.21
65376;BME280;51976;47.332;9.404;2023-03-16T12:32:42;92564.91;;;11.00;41.37
65376;BME280;51976;47.332;9.404;2023-03-16T12:35:32;92561.34;;;10.86;40.17
65376;BME280;51976;47.332;9.404;2023-03-16T12:38:23;92562.72;;;11.02;40.72
65376;BME280;51976;47.332;9.404;2023-03-16T12:41:21;92565.91;;;11.04;40.49
65376;BME280;51976;47.332;9.404;2023-03-16T12:44:11;92561.41;;;10.81;40.61
65376;BME280;51976;47.332;9.404;2023-03-16T12:46:50;92561.91;;;11.02;41.18
65376;BME280;51976;47.332;9.404;2023-03-16T12:49:21;92557.19;;;11.12;42.08
65376;BME280;51976;47.332;9.404;2023-03-16T12:51:58;92550.31;;;11.39;41.67
65376;BME280;51976;47.332;9.404;2023-03-16T12:54:25;92550.22;;;11.25;41.81
65376;BME280;51976;47.332;9.404;2023-03-16T12:56:59;92549.66;;;11.09;41.89
65376;BME280;51976;47.332;9.404;2023-03-16T12:59:35;92562.88;;;10.92;42.03
65376;BME280;51976;47.332;9.404;2023-03-16T13:02:02;92506.66;;;10.62;42.11
65376;BME280;51976;47.332;9.404;2023-03-16T13:04:38;92562.28;;;10.52;43.14
65376;BME280;51976;47.332;9.404;2023-03-16T13:07:14;92569.78;;;10.37;43.83
65376;BME280;51976;47.332;9.404;2023-03-16T13:09:45;92568.28;;;10.26;43.81
65376;BME280;51976;47.332;9.404;2023-03-16T13:12:26;92561.91;;;10.40;44.12
65376;BME280;51976;47.332;9.404;2023-03-16T13:14:52;92566.34;;;10.31;44.50
65376;BME280;51976;47.332;9.404;2023-03-16T13:17:26;92548.88;;;10.47;44.50
65376;BME280;51976;47.332;9.404;2023-03-16T13:20:29;92563.69;;;10.26;45.23
65376;BME280;51976;47.332;9.404;2023-03-16T13:23:18;92567.34;;;10.11;46.19